Time;durP1;ratioP1;P1;durP2;ratioP2;P2;SDS_P1;SDS_P2;PMS_P1;PMS_P2;Temp;Humidity;BMP_temperature;BMP_pressure;BME280_temperature;BME280_humidity;BME280_pressure;Samples;Min_cycle;Max_cycle;Signal;HPM_P1;HPM_P2
2022/03/17 00:02:06;;;;;;;5.50;3.80;;;17.70;54.70;;;;;;5107577;27;45334;-76
2022/03/17 00:04:33;;;;;;;5.47;3.80;;;17.70;55.00;;;;;;5108263;27;45238;-76
2022/03/17 00:07:00;;;;;;;4.75;3.83;;;17.80;55.00;;;;;;5106858;27;45313;-76
2022/03/17 00:09:27;;;;;;;4.57;3.47;;;17.70;54.90;;;;;;5104509;27;48779;-76
2022/03/17 00:11:54;;;;;;;5.07;4.15;;;17.80;54.80;;;;;;5099882;27;45951;-75
2022/03/17 00:14:23;;;;;;;4.35;3.30;;;17.80;54.80;;;;;;5088934;27;45139;-76
2022/03/17 00:16:50;;;;;;;4.35;3.75;;;17.80;54.80;;;;;;5106262;27;45146;-76
2022/03/17 00:19:18;;;;;;;4.82;3.78;;;17.80;54.90;;;;;;5107302;27;46700;-76
2022/03/17 00:21:45;;;;;;;5.47;4.05;;;17.80;54.90;;;;;;5098518;27;45404;-76
2022/03/17 00:24:12;;;;;;;4.53;3.92;;;17.80;54.80;;;;;;5106869;27;45393;-75
2022/03/17 00:26:39;;;;;;;4.88;3.92;;;17.80;56.00;;;;;;5108174;27;45221;-76
2022/03/17 00:29:07;;;;;;;6.43;3.88;;;17.80;55.00;;;;;;5106936;27;46174;-76
2022/03/17 00:31:37;;;;;;;5.78;4.40;;;17.80;55.10;;;;;;5107130;27;45209;-76
2022/03/17 00:34:05;;;;;;;4.80;3.70;;;17.80;55.10;;;;;;5117019;27;45212;-76
2022/03/17 00:36:33;;;;;;;5.80;4.10;;;17.80;55.00;;;;;;5106333;27;45385;-75
2022/03/17 00:38:59;;;;;;;4.88;3.90;;;17.70;55.10;;;;;;5105791;27;45455;-75
2022/03/17 00:41:26;;;;;;;4.85;3.75;;;17.70;54.90;;;;;;5106322;27;45230;-75
2022/03/17 00:43:53;;;;;;;4.28;3.47;;;17.70;55.10;;;;;;5108261;27;45312;-76
2022/03/17 00:46:20;;;;;;;4.88;3.70;;;17.80;55.30;;;;;;5103183;27;45155;-75
2022/03/17 00:48:48;;;;;;;4.70;4.00;;;17.70;55.30;;;;;;5106922;27;48317;-76
2022/03/17 00:51:15;;;;;;;5.10;3.63;;;17.80;55.40;;;;;;5107072;27;46035;-76
2022/03/17 00:53:42;;;;;;;5.75;4.22;;;17.70;55.20;;;;;;5108319;27;45184;-76
2022/03/17 00:56:09;;;;;;;5.65;3.90;;;17.80;55.30;;;;;;5107307;27;45278;-76
2022/03/17 00:58:36;;;;;;;4.60;3.90;;;17.80;55.30;;;;;;5106994;27;45298;-76
2022/03/17 01:01:03;;;;;;;4.10;3.35;;;17.80;55.20;;;;;;5104669;27;45235;-76
2022/03/17 01:03:30;;;;;;;5.40;4.30;;;17.80;55.10;;;;;;5106130;27;45358;-76
2022/03/17 01:05:59;;;;;;;4.95;4.07;;;17.80;55.10;;;;;;5106751;27;45598;-76
2022/03/17 01:08:26;;;;;;;4.45;3.97;;;17.80;55.10;;;;;;5106728;27;47893;-76
2022/03/17 01:10:53;;;;;;;5.22;4.07;;;17.80;55.20;;;;;;5107435;27;45201;-76
2022/03/17 01:13:19;;;;;;;4.93;3.53;;;17.80;55.30;;;;;;5106901;27;45315;-76
2022/03/17 01:15:46;;;;;;;5.10;3.90;;;17.80;55.20;;;;;;5108488;27;45435;-76
2022/03/17 01:18:13;;;;;;;5.05;4.13;;;17.80;55.20;;;;;;5110196;27;48224;-76
2022/03/17 01:20:41;;;;;;;4.70;3.67;;;17.80;55.30;;;;;;5110288;27;45549;-75
2022/03/17 01:23:09;;;;;;;4.97;3.97;;;17.80;55.20;;;;;;5111647;27;45246;-75
2022/03/17 01:25:36;;;;;;;4.93;4.13;;;17.80;55.30;;;;;;5111470;27;45338;-75
2022/03/17 01:28:04;;;;;;;5.35;4.25;;;17.70;55.30;;;;;;5108976;27;45517;-75
2022/03/17 01:30:31;;;;;;;4.43;3.63;;;17.80;55.50;;;;;;5107912;27;45457;-75
2022/03/17 01:32:57;;;;;;;4.72;3.78;;;17.70;55.30;;;;;;5109488;27;45595;-75
2022/03/17 01:35:24;;;;;;;5.72;4.18;;;17.80;55.50;;;;;;5102004;27;45476;-75
2022/03/17 01:37:51;;;;;;;5.75;4.03;;;17.70;55.50;;;;;;5111064;27;47488;-75
2022/03/17 01:40:20;;;;;;;4.00;3.42;;;17.80;55.50;;;;;;5109180;27;45896;-75
2022/03/17 01:42:46;;;;;;;5.18;3.80;;;17.80;55.50;;;;;;5110065;27;46581;-75
2022/03/17 01:45:15;;;;;;;4.70;3.90;;;17.80;55.50;;;;;;5101819;27;45722;-75
2022/03/17 01:47:43;;;;;;;4.80;3.78;;;17.80;55.60;;;;;;5109604;27;47063;-75
2022/03/17 01:50:12;;;;;;;5.38;4.28;;;17.80;55.50;;;;;;5109847;27;45128;-75
2022/03/17 01:52:40;;;;;;;5.00;3.95;;;17.80;55.70;;;;;;5106916;27;45552;-75
2022/03/17 01:55:08;;;;;;;4.97;4.13;;;17.80;55.40;;;;;;5110925;27;45441;-75
2022/03/17 01:57:38;;;;;;;5.95;4.18;;;17.80;55.60;;;;;;5109999;27;46307;-75
2022/03/17 02:00:07;;;;;;;5.53;4.18;;;17.80;55.50;;;;;;5106412;27;45205;-75
2022/03/17 02:02:34;;;;;;;5.45;3.97;;;17.80;55.40;;;;;;5103165;27;45409;-76
2022/03/17 02:05:03;;;;;;;4.43;3.88;;;17.80;55.40;;;;;;5110211;27;45303;-76
2022/03/17 02:07:30;;;;;;;5.40;4.22;;;17.80;55.40;;;;;;5108468;27;46311;-75
2022/03/17 02:09:57;;;;;;;5.07;4.25;;;17.80;55.50;;;;;;5109182;27;45224;-76
2022/03/17 02:15:11;;;;;;;4.88;4.13;;;17.80;55.40;;;;;;5109252;27;45261;-75
2022/03/17 02:17:39;;;;;;;5.45;4.03;;;17.70;55.50;;;;;;5098851;27;47793;-75
2022/03/17 02:20:09;;;;;;;4.78;3.67;;;17.80;55.50;;;;;;5108970;27;45295;-75
2022/03/17 02:22:41;;;;;;;5.57;4.13;;;17.70;55.40;;;;;;5110241;27;45373;-75
2022/03/17 02:27:54;;;;;;;5.47;4.38;;;17.70;55.60;;;;;;5109390;27;45706;-75
2022/03/17 02:30:23;;;;;;;5.20;4.22;;;17.70;55.50;;;;;;5106283;27;45621;-75
2022/03/17 02:32:51;;;;;;;5.72;4.60;;;17.80;55.50;;;;;;5107506;27;45306;-75
2022/03/17 02:35:22;;;;;;;5.40;3.83;;;17.80;55.50;;;;;;5107383;27;45500;-75
2022/03/17 02:37:49;;;;;;;5.78;4.47;;;17.80;55.50;;;;;;5088684;28;48159;-75
2022/03/17 02:40:17;;;;;;;7.05;4.45;;;17.80;56.70;;;;;;5108059;27;45380;-76
2022/03/17 02:42:45;;;;;;;5.85;4.35;;;17.80;55.50;;;;;;5104964;27;45533;-75
2022/03/17 02:45:12;;;;;;;6.32;4.47;;;17.80;55.50;;;;;;5109640;27;45355;-75
2022/03/17 02:47:40;;;;;;;5.50;4.00;;;17.80;55.50;;;;;;5101206;27;45319;-75
2022/03/17 02:50:10;;;;;;;6.05;4.78;;;17.80;55.50;;;;;;5104525;27;45992;-75
2022/03/17 02:52:38;;;;;;;5.97;4.45;;;17.80;55.50;;;;;;5102258;27;45224;-75
2022/03/17 02:55:05;;;;;;;6.30;5.00;;;17.80;55.60;;;;;;5122633;27;45202;-75
2022/03/17 02:57:33;;;;;;;4.78;4.03;;;17.80;55.60;;;;;;5111561;27;46552;-75
2022/03/17 03:00:00;;;;;;;5.95;4.35;;;17.80;55.50;;;;;;5106857;27;45188;-75
2022/03/17 03:02:27;;;;;;;5.68;4.63;;;17.80;55.50;;;;;;5107001;27;45290;-75
2022/03/17 03:04:54;;;;;;;5.65;4.05;;;17.80;55.60;;;;;;5108859;27;45510;-75
2022/03/17 03:07:21;;;;;;;4.90;4.03;;;17.80;55.50;;;;;;5105549;27;45336;-75
2022/03/17 03:09:47;;;;;;;6.97;4.55;;;17.80;55.50;;;;;;5107274;27;45325;-75
2022/03/17 03:12:14;;;;;;;5.75;4.40;;;17.70;55.40;;;;;;5109162;27;45299;-75
2022/03/17 03:14:42;;;;;;;5.13;4.30;;;17.70;55.40;;;;;;5108395;27;45444;-75
2022/03/17 03:17:09;;;;;;;5.40;4.22;;;17.70;55.50;;;;;;5102562;27;45526;-75
2022/03/17 03:19:36;;;;;;;5.55;4.50;;;17.70;55.40;;;;;;5102814;27;45261;-75
2022/03/17 03:22:03;;;;;;;6.50;4.60;;;17.80;55.70;;;;;;5105473;27;45323;-75
2022/03/17 03:24:30;;;;;;;6.40;4.78;;;17.80;55.50;;;;;;5109229;27;45122;-75
2022/03/17 03:26:57;;;;;;;6.38;4.88;;;17.80;55.40;;;;;;5101381;27;45482;-75
2022/03/17 03:29:25;;;;;;;6.30;4.80;;;17.80;55.40;;;;;;5102594;27;45216;-75
2022/03/17 03:31:56;;;;;;;6.20;4.50;;;17.80;55.40;;;;;;5106948;27;45264;-76
2022/03/17 03:34:24;;;;;;;5.43;4.30;;;17.80;55.40;;;;;;5109468;27;45339;-76
2022/03/17 03:39:36;;;;;;;5.90;4.90;;;17.80;55.30;;;;;;5104118;27;45478;-76
2022/03/17 03:42:04;;;;;;;5.93;4.50;;;17.80;55.30;;;;;;5106380;27;45166;-75
2022/03/17 03:44:31;;;;;;;5.68;4.93;;;17.80;55.30;;;;;;5105763;27;45174;-75
2022/03/17 03:46:59;;;;;;;5.40;4.18;;;17.80;55.40;;;;;;5107716;27;48021;-75
2022/03/17 03:49:26;;;;;;;6.88;5.07;;;17.80;55.40;;;;;;5107628;27;45248;-75
2022/03/17 03:51:53;;;;;;;6.72;4.68;;;17.80;55.50;;;;;;5108627;27;45218;-76
2022/03/17 03:54:20;;;;;;;6.07;4.80;;;17.80;55.60;;;;;;5103559;27;45349;-76
2022/03/17 03:56:49;;;;;;;5.85;4.50;;;17.80;55.70;;;;;;5102495;27;46203;-76
2022/03/17 03:59:19;;;;;;;7.20;4.57;;;17.70;55.50;;;;;;5107667;27;45273;-75
2022/03/17 04:01:46;;;;;;;6.70;5.15;;;17.70;55.60;;;;;;5105226;27;45465;-75
2022/03/17 04:04:17;;;;;;;7.63;5.22;;;17.80;55.80;;;;;;5109838;27;45274;-76
2022/03/17 04:06:46;;;;;;;6.43;5.30;;;17.80;55.90;;;;;;5109652;27;47142;-75
2022/03/17 04:09:13;;;;;;;6.50;5.32;;;17.70;56.00;;;;;;5103671;27;45566;-75
2022/03/17 04:11:40;;;;;;;6.72;5.40;;;17.80;56.00;;;;;;5105507;27;45439;-75
2022/03/17 04:14:07;;;;;;;6.75;5.22;;;17.70;56.10;;;;;;5105923;27;45456;-75
2022/03/17 04:16:34;;;;;;;7.53;5.47;;;17.90;56.30;;;;;;5099489;27;45410;-75
2022/03/17 04:19:01;;;;;;;5.68;4.78;;;17.80;56.10;;;;;;5106115;27;45136;-75
2022/03/17 04:21:31;;;;;;;7.18;5.05;;;17.80;56.20;;;;;;5106149;27;45388;-75
2022/03/17 04:23:58;;;;;;;6.72;5.15;;;17.80;56.20;;;;;;5108571;27;45250;-75
2022/03/17 04:26:25;;;;;;;6.50;5.07;;;17.80;56.40;;;;;;5106342;27;46900;-75
2022/03/17 04:28:52;;;;;;;7.40;5.25;;;17.80;56.30;;;;;;5106486;27;45393;-76
2022/03/17 04:31:20;;;;;;;7.05;5.25;;;17.80;56.40;;;;;;5107424;27;45254;-76
2022/03/17 04:33:47;;;;;;;6.40;5.10;;;17.80;56.50;;;;;;5107595;27;45289;-75
2022/03/17 04:36:14;;;;;;;6.22;5.03;;;17.80;56.50;;;;;;5104706;27;46615;-76
2022/03/17 04:38:43;;;;;;;7.35;4.50;;;17.80;56.60;;;;;;5106436;27;45167;-76
2022/03/17 04:41:11;;;;;;;8.45;5.82;;;17.80;56.70;;;;;;5106759;27;45243;-76
2022/03/17 04:43:38;;;;;;;7.43;4.53;;;17.80;56.70;;;;;;5106034;27;45269;-75
2022/03/17 04:46:07;;;;;;;6.35;5.05;;;17.80;56.80;;;;;;5106491;27;47014;-75
2022/03/17 04:48:34;;;;;;;5.70;4.75;;;17.80;57.40;;;;;;5103074;27;45295;-76
2022/03/17 04:51:01;;;;;;;7.90;5.28;;;17.80;57.00;;;;;;5110304;27;45183;-76
2022/03/17 04:53:27;;;;;;;7.28;5.13;;;17.80;57.20;;;;;;5112310;27;45346;-76
2022/03/17 04:55:59;;;;;;;7.15;5.60;;;17.80;57.10;;;;;;5110457;27;46735;-75
2022/03/17 04:58:25;;;;;;;7.65;4.82;;;17.80;57.30;;;;;;5103991;27;45268;-75
2022/03/17 05:00:53;;;;;;;6.18;4.70;;;17.80;57.30;;;;;;5108675;27;45773;-76
2022/03/17 05:03:20;;;;;;;6.68;5.20;;;17.80;57.50;;;;;;5111904;27;45495;-75
2022/03/17 05:05:47;;;;;;;6.75;5.07;;;17.80;57.70;;;;;;5109704;27;45221;-75
2022/03/17 05:08:15;;;;;;;7.10;5.30;;;17.80;57.70;;;;;;5107817;27;45233;-75
2022/03/17 05:10:42;;;;;;;6.93;5.05;;;17.80;57.70;;;;;;5107525;27;45248;-75
2022/03/17 05:13:11;;;;;;;6.85;4.97;;;17.80;57.40;;;;;;5111046;27;45366;-75
2022/03/17 05:15:39;;;;;;;6.72;5.07;;;17.80;57.50;;;;;;5108912;27;45490;-75
2022/03/17 05:18:07;;;;;;;6.00;4.57;;;17.80;57.50;;;;;;5106673;27;45511;-75
2022/03/17 05:20:35;;;;;;;6.13;4.45;;;17.70;57.80;;;;;;5110077;27;45234;-74
2022/03/17 05:23:04;;;;;;;5.57;4.18;;;17.70;57.70;;;;;;5107562;27;45347;-75
2022/03/17 05:25:31;;;;;;;5.03;4.30;;;17.70;58.20;;;;;;5110299;27;47433;-75
2022/03/17 05:27:58;;;;;;;5.40;4.22;;;17.70;58.00;;;;;;5109649;27;45309;-75
2022/03/17 05:30:27;;;;;;;5.43;3.90;;;17.70;58.20;;;;;;5107364;27;45201;-75
2022/03/17 05:32:54;;;;;;;5.68;4.20;;;17.70;58.10;;;;;;5105265;27;45522;-75
2022/03/17 05:35:21;;;;;;;5.93;3.90;;;17.70;58.80;;;;;;5107891;27;45250;-75
2022/03/17 05:37:50;;;;;;;5.45;4.00;;;17.70;58.90;;;;;;5103352;27;45225;-75
2022/03/17 05:40:18;;;;;;;5.05;4.07;;;17.70;59.00;;;;;;5098368;27;45246;-75
2022/03/17 05:42:47;;;;;;;6.68;3.95;;;17.70;60.30;;;;;;5109575;27;45372;-75
2022/03/17 05:45:15;;;;;;;4.95;3.53;;;17.70;60.30;;;;;;5110238;27;46492;-75
2022/03/17 05:47:45;;;;;;;6.00;4.15;;;17.70;58.80;;;;;;5105515;27;45874;-76
2022/03/17 05:50:14;;;;;;;5.05;3.95;;;17.60;60.50;;;;;;5109888;27;45177;-75
2022/03/17 05:52:43;;;;;;;6.38;3.72;;;17.60;60.40;;;;;;5109124;27;45203;-75
2022/03/17 05:55:10;;;;;;;4.95;3.85;;;17.60;60.80;;;;;;5107489;27;48083;-75
2022/03/17 05:57:37;;;;;;;5.68;4.22;;;17.60;60.90;;;;;;5109196;27;45266;-75
2022/03/17 06:00:06;;;;;;;6.13;4.57;;;17.60;61.20;;;;;;5109462;27;45229;-75
2022/03/17 06:02:35;;;;;;;5.57;4.03;;;17.60;61.10;;;;;;5105067;27;45467;-75
2022/03/17 06:05:03;;;;;;;8.35;4.85;;;17.70;61.00;;;;;;5109783;27;45353;-75
2022/03/17 06:07:37;;;;;;;6.03;4.95;;;17.70;60.80;;;;;;5108877;27;45202;-75
2022/03/17 06:10:04;;;;;;;5.53;4.50;;;17.60;60.70;;;;;;5106118;27;45455;-75
2022/03/17 06:12:32;;;;;;;6.65;4.47;;;17.60;60.50;;;;;;5110834;27;45165;-74
2022/03/17 06:14:59;;;;;;;5.70;3.85;;;17.60;59.60;;;;;;5108267;27;48244;-75
2022/03/17 06:17:37;;;;;;;5.72;3.97;;;17.60;59.50;;;;;;5107451;27;45280;-74
2022/03/17 06:20:09;;;;;;;4.93;3.28;;;17.60;59.00;;;;;;5109515;27;45155;-75
2022/03/17 06:22:37;;;;;;;5.45;3.70;;;17.60;58.90;;;;;;5118232;27;45292;-76
2022/03/17 06:25:05;;;;;;;5.25;3.55;;;17.60;59.00;;;;;;5111700;27;47458;-75
2022/03/17 06:27:32;;;;;;;4.55;3.45;;;17.60;58.90;;;;;;5099353;27;45326;-75
2022/03/17 06:29:58;;;;;;;5.18;3.80;;;17.60;58.90;;;;;;5100654;27;45215;-76
2022/03/17 06:32:26;;;;;;;4.65;3.42;;;17.60;59.40;;;;;;5101976;27;45425;-76
2022/03/17 06:34:53;;;;;;;5.38;3.33;;;17.60;59.40;;;;;;5098349;27;47405;-75
2022/03/17 06:37:21;;;;;;;4.40;3.20;;;17.70;59.10;;;;;;5109361;27;45274;-76
2022/03/17 06:39:48;;;;;;;5.38;3.40;;;17.70;59.50;;;;;;5108245;27;45591;-75
2022/03/17 06:42:14;;;;;;;4.78;3.40;;;17.70;59.60;;;;;;5105128;27;45383;-75
2022/03/17 06:44:41;;;;;;;4.57;2.83;;;17.70;59.80;;;;;;5105173;27;45290;-76
2022/03/17 06:47:08;;;;;;;4.22;3.05;;;17.80;59.50;;;;;;5108538;27;45234;-75
2022/03/17 06:49:35;;;;;;;4.35;2.65;;;17.80;59.90;;;;;;5109139;27;45153;-76
2022/03/17 06:52:02;;;;;;;4.50;2.60;;;17.80;59.70;;;;;;5108994;27;45413;-75
2022/03/17 06:54:30;;;;;;;4.15;2.60;;;17.80;59.30;;;;;;5109990;27;45333;-76
2022/03/17 06:56:57;;;;;;;3.25;2.47;;;17.80;59.20;;;;;;5108898;27;45239;-76
2022/03/17 06:59:24;;;;;;;3.42;2.33;;;17.80;59.10;;;;;;5108993;27;45227;-75
2022/03/17 07:01:50;;;;;;;2.88;2.15;;;17.80;59.10;;;;;;5109613;27;45337;-75
2022/03/17 07:04:17;;;;;;;3.25;2.35;;;17.80;59.00;;;;;;5109035;27;45509;-75
2022/03/17 07:06:44;;;;;;;5.53;2.80;;;17.80;58.80;;;;;;5105237;27;45425;-75
2022/03/17 07:09:10;;;;;;;3.13;2.20;;;17.80;58.80;;;;;;5090083;27;45405;-75
2022/03/17 07:11:38;;;;;;;4.45;2.33;;;17.80;58.80;;;;;;5094463;27;45343;-75
2022/03/17 07:14:05;;;;;;;3.15;2.20;;;17.80;58.50;;;;;;5093061;27;46598;-75
2022/03/17 07:16:32;;;;;;;3.67;2.08;;;17.80;58.50;;;;;;5095254;27;46034;-75
2022/03/17 07:18:59;;;;;;;2.65;2.10;;;17.80;58.50;;;;;;5098830;27;45756;-76
2022/03/17 07:21:26;;;;;;;3.45;1.60;;;17.70;58.30;;;;;;5108745;27;45524;-76
2022/03/17 07:23:52;;;;;;;2.53;1.75;;;17.70;58.30;;;;;;5104006;27;46217;-74
2022/03/17 07:26:19;;;;;;;2.28;1.58;;;17.70;58.30;;;;;;5088555;27;45253;-75
2022/03/17 07:28:49;;;;;;;2.10;1.55;;;17.70;58.30;;;;;;5101235;27;45545;-75
2022/03/17 07:31:16;;;;;;;1.50;1.33;;;17.80;58.20;;;;;;5107535;27;45281;-76
2022/03/17 07:33:43;;;;;;;2.33;1.40;;;17.80;58.10;;;;;;5112577;27;45356;-75
2022/03/17 07:36:10;;;;;;;1.73;1.30;;;17.80;58.10;;;;;;5102208;27;45411;-75
2022/03/17 07:38:37;;;;;;;3.58;1.63;;;17.80;58.10;;;;;;5105681;27;45762;-76
2022/03/17 07:41:04;;;;;;;2.25;1.60;;;17.80;58.10;;;;;;5103020;27;45815;-75
2022/03/17 07:43:30;;;;;;;1.58;1.30;;;17.80;58.00;;;;;;5106875;27;47111;-75
2022/03/17 07:45:58;;;;;;;3.47;1.60;;;17.80;58.00;;;;;;5106692;27;45230;-75
2022/03/17 07:48:25;;;;;;;2.22;1.40;;;17.80;57.80;;;;;;5107099;27;45330;-76
2022/03/17 07:50:52;;;;;;;1.77;1.17;;;17.80;57.80;;;;;;5108304;27;45314;-75
2022/03/17 07:53:19;;;;;;;2.75;1.58;;;17.80;57.90;;;;;;5108726;27;46541;-76
2022/03/17 07:55:47;;;;;;;2.72;1.50;;;17.80;57.70;;;;;;5108613;27;45273;-75
2022/03/17 07:58:15;;;;;;;1.80;1.35;;;17.80;57.70;;;;;;5106619;27;45595;-75
2022/03/17 08:00:46;;;;;;;2.10;1.40;;;17.80;57.70;;;;;;5108396;27;45302;-76
2022/03/17 08:03:14;;;;;;;3.25;1.55;;;17.80;59.00;;;;;;5107669;27;45437;-76
2022/03/17 08:05:41;;;;;;;3.38;1.73;;;17.80;57.70;;;;;;5107369;27;45224;-75
2022/03/17 08:08:08;;;;;;;1.77;1.35;;;17.80;57.80;;;;;;5108839;27;45325;-75
2022/03/17 08:10:34;;;;;;;2.97;1.20;;;17.80;57.50;;;;;;5106367;27;45364;-75
2022/03/17 08:13:02;;;;;;;1.73;1.02;;;17.80;57.40;;;;;;5090291;27;46180;-75
2022/03/17 08:15:29;;;;;;;2.70;1.20;;;17.70;57.50;;;;;;5103910;27;45285;-75
2022/03/17 08:17:56;;;;;;;2.10;1.23;;;17.80;57.10;;;;;;5098889;27;45232;-75
2022/03/17 08:20:25;;;;;;;1.48;1.15;;;17.80;57.40;;;;;;5105240;27;45540;-76
2022/03/17 08:22:51;;;;;;;2.03;1.10;;;17.80;58.40;;;;;;5107633;27;46427;-75
2022/03/17 08:25:18;;;;;;;2.15;0.90;;;17.80;57.00;;;;;;5106173;27;45588;-76
2022/03/17 08:27:45;;;;;;;3.55;1.33;;;17.80;57.10;;;;;;5102653;27;45224;-75
2022/03/17 08:30:12;;;;;;;1.80;0.95;;;17.80;57.10;;;;;;5107588;27;45107;-75
2022/03/17 08:32:40;;;;;;;2.90;1.23;;;17.80;56.90;;;;;;5106580;27;47064;-76
2022/03/17 08:35:08;;;;;;;2.90;1.00;;;17.80;57.00;;;;;;5107456;27;45333;-75
2022/03/17 08:37:40;;;;;;;1.33;0.95;;;17.80;57.00;;;;;;5106524;27;45360;-75
2022/03/17 08:40:08;;;;;;;1.48;0.80;;;17.80;56.90;;;;;;5115639;27;45291;-76
2022/03/17 08:42:35;;;;;;;1.20;0.80;;;17.80;57.00;;;;;;5106528;27;46361;-76
2022/03/17 08:49:18;;;;;;;1.95;0.75;;;17.80;56.90;;;;;;5104545;27;45190;-75
2022/03/17 08:50:33;;;;;;;2.00;1.10;;;17.70;56.90;;;;;;5103820;27;46507;-75
2022/03/17 08:53:01;;;;;;;2.03;0.70;;;17.80;56.80;;;;;;5100789;27;45504;-76
2022/03/17 08:55:27;;;;;;;2.60;1.05;;;17.80;56.90;;;;;;5106297;27;45492;-75
2022/03/17 08:57:55;;;;;;;2.65;0.90;;;17.80;56.90;;;;;;5107317;27;45342;-75
2022/03/17 09:00:23;;;;;;;1.33;0.73;;;17.80;56.50;;;;;;5105627;27;45166;-75
2022/03/17 09:02:50;;;;;;;1.17;0.75;;;17.70;56.80;;;;;;5105032;27;46068;-75
2022/03/17 09:05:17;;;;;;;1.23;0.60;;;17.70;56.60;;;;;;5105569;27;45635;-75
2022/03/17 09:07:44;;;;;;;0.95;0.73;;;17.80;56.40;;;;;;5106825;27;45173;-75
2022/03/17 09:10:12;;;;;;;3.35;0.75;;;17.80;56.40;;;;;;5106649;27;45478;-75
2022/03/17 09:12:39;;;;;;;1.70;0.50;;;17.80;56.40;;;;;;5104931;27;47412;-75
2022/03/17 09:15:07;;;;;;;2.00;0.65;;;17.80;56.50;;;;;;5107467;27;45349;-75
2022/03/17 09:17:33;;;;;;;1.88;0.60;;;17.80;56.20;;;;;;5105355;27;45158;-75
2022/03/17 09:20:00;;;;;;;1.98;0.50;;;17.80;56.30;;;;;;5106545;27;45343;-76
2022/03/17 09:22:27;;;;;;;1.83;0.60;;;17.80;56.10;;;;;;5096466;27;46573;-75
2022/03/17 09:24:54;;;;;;;1.38;0.52;;;17.80;56.10;;;;;;5103796;27;45919;-75
2022/03/17 09:27:23;;;;;;;0.82;0.60;;;17.80;56.20;;;;;;5106855;27;45264;-75
2022/03/17 09:29:49;;;;;;;1.60;0.77;;;17.80;56.10;;;;;;5105392;27;45479;-75
2022/03/17 09:32:20;;;;;;;1.48;0.70;;;17.80;56.00;;;;;;5107301;27;47732;-75
2022/03/17 09:34:46;;;;;;;1.33;0.82;;;17.80;56.20;;;;;;5108949;27;45349;-75
2022/03/17 09:37:13;;;;;;;1.52;0.85;;;17.80;55.90;;;;;;5109532;27;45317;-75
2022/03/17 09:39:45;;;;;;;1.40;0.73;;;17.70;56.10;;;;;;5108947;27;45203;-75
2022/03/17 09:42:14;;;;;;;2.00;0.80;;;17.70;55.80;;;;;;5106488;27;46185;-74
2022/03/17 09:44:42;;;;;;;1.08;0.60;;;17.70;55.80;;;;;;5110410;27;45166;-75
2022/03/17 09:47:10;;;;;;;2.35;0.63;;;17.80;55.90;;;;;;5103942;27;45340;-75
2022/03/17 09:49:38;;;;;;;1.50;0.57;;;17.70;55.70;;;;;;5102375;27;45564;-75
2022/03/17 09:52:12;;;;;;;1.15;0.40;;;17.70;55.80;;;;;;5108131;27;45228;-74
2022/03/17 09:54:39;;;;;;;1.63;0.70;;;17.70;55.80;;;;;;5106342;27;45273;-75
2022/03/17 09:57:06;;;;;;;1.60;0.68;;;17.80;55.60;;;;;;5109333;27;45482;-75
2022/03/17 09:59:33;;;;;;;1.58;0.63;;;17.80;55.90;;;;;;5106668;27;45613;-75
2022/03/17 10:02:03;;;;;;;1.48;0.60;;;17.80;55.90;;;;;;5108831;27;45457;-75
2022/03/17 10:04:32;;;;;;;1.33;0.68;;;17.80;55.90;;;;;;5109410;27;45262;-75
2022/03/17 10:07:00;;;;;;;0.47;0.45;;;17.80;55.90;;;;;;5106274;27;45299;-75
2022/03/17 10:09:29;;;;;;;2.83;0.68;;;17.80;56.00;;;;;;5100030;27;45481;-74
2022/03/17 10:12:03;;;;;;;1.20;0.68;;;17.80;55.90;;;;;;5109922;27;46519;-77
2022/03/17 10:14:38;;;;;;;0.98;0.50;;;17.80;55.70;;;;;;5110260;27;45197;-76
2022/03/17 10:17:10;;;;;;;1.27;0.70;;;17.80;55.60;;;;;;5103558;27;45353;-77
2022/03/17 10:19:37;;;;;;;1.00;0.60;;;17.80;55.50;;;;;;5105852;27;45712;-77
2022/03/17 10:22:08;;;;;;;1.15;0.50;;;17.80;55.50;;;;;;5102508;27;48155;-77
2022/03/17 10:24:36;;;;;;;1.45;0.47;;;17.80;55.60;;;;;;5103427;27;45221;-75
2022/03/17 10:27:04;;;;;;;3.47;0.40;;;17.80;55.70;;;;;;5104448;27;45413;-76
2022/03/17 10:29:32;;;;;;;0.55;0.50;;;17.70;56.00;;;;;;5100597;27;45311;-76
2022/03/17 10:32:04;;;;;;;1.48;0.80;;;17.70;56.20;;;;;;5105863;27;46379;-76
2022/03/17 10:34:35;;;;;;;1.58;0.60;;;17.70;56.10;;;;;;5107781;27;45731;-76
2022/03/17 10:37:15;;;;;;;0.60;0.40;;;17.70;56.10;;;;;;5102106;27;45430;-76
2022/03/17 10:39:44;;;;;;;0.70;0.40;;;17.70;56.30;;;;;;5104647;27;45507;-76
2022/03/17 10:42:13;;;;;;;0.70;0.43;;;17.70;56.40;;;;;;5107388;27;46087;-76
2022/03/17 10:44:40;;;;;;;1.13;0.50;;;17.70;56.20;;;;;;5109248;27;46627;-76
2022/03/17 10:47:09;;;;;;;1.00;0.57;;;17.70;56.10;;;;;;5105399;27;45524;-76
2022/03/17 10:49:37;;;;;;;1.17;0.50;;;17.60;56.20;;;;;;5107960;27;45293;-76
2022/03/17 10:52:05;;;;;;;1.10;0.40;;;17.70;56.10;;;;;;5103310;27;47955;-76
2022/03/17 10:54:33;;;;;;;0.60;0.40;;;17.70;56.00;;;;;;5109971;27;45234;-76
2022/03/17 10:57:05;;;;;;;1.35;0.50;;;17.70;55.90;;;;;;5106992;27;45236;-76
2022/03/17 10:59:39;;;;;;;0.95;0.43;;;17.80;56.00;;;;;;5102189;27;45306;-76
2022/03/17 11:02:09;;;;;;;0.70;0.40;;;17.80;55.60;;;;;;5113739;27;46455;-76
2022/03/17 11:04:38;;;;;;;0.60;0.38;;;17.80;55.80;;;;;;5113223;27;45262;-76
2022/03/17 11:07:08;;;;;;;0.98;0.50;;;17.80;55.70;;;;;;5107124;27;45333;-76
2022/03/17 11:09:38;;;;;;;1.92;0.50;;;17.70;55.60;;;;;;5103089;27;45227;-76
2022/03/17 11:12:07;;;;;;;1.17;0.40;;;17.70;55.70;;;;;;5102200;27;45473;-76
2022/03/17 11:14:34;;;;;;;2.08;0.70;;;17.70;55.60;;;;;;5100705;27;45171;-76
2022/03/17 11:17:05;;;;;;;1.38;0.52;;;17.70;55.60;;;;;;5108987;27;45173;-76
2022/03/17 11:19:33;;;;;;;2.63;0.47;;;17.70;55.70;;;;;;5101202;27;45245;-76
2022/03/17 11:22:09;;;;;;;1.10;0.40;;;17.70;55.50;;;;;;5102686;27;46268;-76
2022/03/17 11:24:36;;;;;;;1.35;0.50;;;17.70;55.90;;;;;;5109053;27;45135;-76
2022/03/17 11:27:11;;;;;;;0.88;0.38;;;17.70;55.50;;;;;;5106280;27;45254;-76
2022/03/17 11:29:45;;;;;;;3.80;0.70;;;17.70;55.70;;;;;;5102776;27;45248;-76
2022/03/17 11:32:28;;;;;;;1.45;0.40;;;17.70;55.50;;;;;;5098454;27;47913;-76
2022/03/17 11:35:09;;;;;;;3.28;0.60;;;17.70;55.50;;;;;;5107422;27;45851;-76
2022/03/17 11:37:38;;;;;;;2.38;0.63;;;17.70;55.70;;;;;;5106624;27;45454;-76
2022/03/17 11:40:08;;;;;;;2.72;0.55;;;17.70;55.70;;;;;;5108521;27;45120;-76
2022/03/17 11:42:40;;;;;;;1.23;0.50;;;17.80;55.80;;;;;;5099179;27;46181;-76
2022/03/17 11:45:42;;;;;;;1.65;0.50;;;17.80;55.60;;;;;;5105085;27;45575;-76
2022/03/17 11:48:12;;;;;;;1.50;0.50;;;17.80;56.80;;;;;;5108059;27;45216;-76
2022/03/17 11:50:42;;;;;;;1.60;0.60;;;17.80;55.50;;;;;;5106212;27;45284;-76
2022/03/17 11:53:21;;;;;;;0.93;0.50;;;17.80;55.40;;;;;;5106444;27;45270;-76
2022/03/17 11:55:53;;;;;;;1.10;0.43;;;17.80;55.20;;;;;;5105668;27;45355;-76
2022/03/17 11:58:29;;;;;;;1.08;0.60;;;17.80;55.40;;;;;;5107952;27;45348;-76
2022/03/17 12:01:11;;;;;;;1.33;0.45;;;17.70;55.30;;;;;;5107167;27;45163;-76
2022/03/17 12:03:40;;;;;;;1.70;0.50;;;17.80;55.30;;;;;;5106146;27;46428;-76
2022/03/17 12:06:13;;;;;;;1.90;0.63;;;17.70;55.20;;;;;;5107506;27;45120;-76
2022/03/17 12:08:49;;;;;;;0.60;0.43;;;17.70;55.40;;;;;;5102473;27;45187;-76
2022/03/17 12:11:17;;;;;;;0.88;0.35;;;17.70;54.90;;;;;;5106107;27;46210;-76
2022/03/17 12:14:04;;;;;;;3.10;0.55;;;17.70;54.80;;;;;;5109162;27;46286;-76
2022/03/17 12:16:40;;;;;;;1.23;0.70;;;17.70;55.10;;;;;;5100752;27;45352;-76
2022/03/17 12:19:07;;;;;;;1.65;0.70;;;17.70;55.40;;;;;;5094726;27;45714;-76
2022/03/17 12:22:12;;;;;;;1.50;0.63;;;17.70;55.20;;;;;;5103780;27;45258;-76
2022/03/17 12:24:48;;;;;;;0.75;0.40;;;17.70;55.20;;;;;;5102698;27;46700;-76
2022/03/17 12:27:22;;;;;;;2.65;0.60;;;17.70;55.10;;;;;;5106816;27;45124;-76
2022/03/17 12:29:50;;;;;;;2.05;0.70;;;17.80;54.90;;;;;;5106945;27;45148;-76
2022/03/17 12:32:19;;;;;;;1.55;0.47;;;17.80;54.80;;;;;;5105123;27;45443;-76
2022/03/17 12:34:48;;;;;;;2.17;0.50;;;17.80;54.80;;;;;;5106882;27;46212;-75
2022/03/17 12:37:15;;;;;;;1.88;0.60;;;17.80;54.90;;;;;;5099425;27;45158;-76
2022/03/17 12:39:48;;;;;;;2.17;0.75;;;17.80;54.70;;;;;;5101406;27;45208;-76
2022/03/17 12:42:20;;;;;;;2.00;0.60;;;17.80;54.80;;;;;;5096614;27;45444;-76
2022/03/17 12:44:55;;;;;;;1.17;0.50;;;17.80;54.30;;;;;;5104078;27;46190;-76
2022/03/17 12:47:23;;;;;;;2.55;0.70;;;17.80;54.40;;;;;;5100380;27;45497;-76
2022/03/17 12:49:51;;;;;;;2.15;0.60;;;17.80;54.70;;;;;;5105502;27;45206;-76
2022/03/17 12:52:21;;;;;;;2.63;0.70;;;17.80;54.60;;;;;;5100223;27;45596;-76
2022/03/17 12:54:51;;;;;;;2.35;0.70;;;17.80;54.00;;;;;;5101316;27;47256;-77
2022/03/17 12:57:18;;;;;;;1.83;0.60;;;17.80;54.00;;;;;;5107330;27;45747;-76
2022/03/17 12:59:45;;;;;;;1.73;0.65;;;17.70;54.10;;;;;;5102381;27;45233;-76
2022/03/17 13:02:17;;;;;;;3.55;0.90;;;17.80;54.30;;;;;;5105640;27;45264;-77
2022/03/17 13:04:45;;;;;;;3.33;0.80;;;17.70;54.10;;;;;;5102745;27;45478;-77
2022/03/17 13:07:14;;;;;;;1.58;0.52;;;17.70;55.00;;;;;;5106866;27;45607;-77